Latest Coastal Weather Observations for Wyndham Airport

IDW60701

Issued at 10:33 am WST Tuesday 21 November 2017 (issued every 10 minutes, with the page automatically refreshed every 10 minutes)

About coastal observations | Map of coastal stations | Coastal observations for WA | Marine services | Other Formats
Station Details ID: 001006 Name: WYNDHAM AERO Lat: -15.51 Lon: 128.15 Height: 3.8 m
Data from the previous 72 hours. | See also: Recent months at Wyndham Airport
Date/Time
WST
Temp
°C
Wind Pressure Rain since
9am
mm
Weather Cloud Vis
km
Sea
Height
m
Swell
Dir  Spd
kts
Gust
kts
hPa Trend Height
m
Period
s
Dir
21/10:30am - WSW 6 11 1006.8 - 0.0 - - - - - - -
21/10:00am - WSW 5 7 1007.3 - 0.0 - - - - - - -
21/09:30am - NNW 4 6 1007.6 - 0.0 - - - - - - -
21/09:00am - W 4 6 1008.0 - 4.8 - - - - - - -
21/08:30am 31.2 SW 6 8 1008.5 - 4.8 - - - - - - -
21/08:00am 30.6 SW 6 8 1008.7 - 4.8 - - - - - - -
21/07:30am 29.8 SW 6 7 1008.7 - 4.8 - - - - - - -
21/07:00am 27.9 CALM 0 0 1008.9 - 4.8 - - - - - - -
21/06:30am 27.1 SW 2 5 1009.0 - 4.8 - - - - - - -
21/06:00am 26.6 NNW 1 5 1008.4 - 4.6 - - - - - - -
21/05:30am 25.7 ENE 4 5 1008.4 - 4.6 - - - - - - -
21/05:00am 25.7 ENE 7 8 1008.5 - 4.6 - - - - - - -
21/04:30am 26.0 ENE 4 10 1008.8 - 4.2 - - - - - - -
21/04:00am 26.1 ENE 4 6 1008.2 - 4.0 - - - - - - -
21/03:30am 26.4 ENE 4 6 1008.1 - 2.4 - - - - - - -
21/03:00am 27.4 SW 8 11 1007.3 - 1.4 Rain - - - - - -
21/02:30am 29.1 WSW 7 9 1006.4 - 1.0 - - - - - - -
21/02:00am 29.2 W 8 9 1005.9 - 1.0 - - - - - - -
21/01:30am 29.3 WNW 10 13 1005.7 - 1.0 - - - - - - -
21/01:00am 29.4 W 11 13 1006.0 - 1.0 - - - - - - -
21/12:30am 29.6 W 10 14 1006.3 - 1.0 - - - - - - -
21/12:00am 28.2 NNW 6 9 1006.8 - 1.0 Recent precip. - - - - - -
 
Date/Time
WST
Temp
°C
Wind Pressure Rain since
9am
mm
Weather Cloud Vis
km
Sea
Height
m
Swell
Dir  Spd
kts
Gust
kts
hPa Trend Height
m
Period
s
Dir
20/11:30pm 28.3 NNW 9 11 1006.8 - 0.8 - - - - - - -
20/11:00pm 30.9 ESE 15 21 1008.1 - 0.0 - - - - - - -
20/10:30pm 30.1 SE 10 13 1007.5 - 0.0 - - - - - - -
20/10:00pm 32.5 NNW 7 10 1007.5 - 0.0 - - - - - - -
20/09:30pm 31.6 NNW 7 8 1007.4 - 0.0 - - - - - - -
20/09:00pm 31.7 N 5 7 1007.5 - 0.0 - - - - - - -
20/08:30pm 32.0 NNW 5 7 1007.2 - 0.0 - - - - - - -
20/08:00pm 32.7 NNW 6 10 1007.1 - 0.0 - - - - - - -
20/07:30pm 32.5 W 3 6 1006.6 - 0.0 - - - - - - -
20/07:00pm 32.7 NNW 6 10 1005.8 - 0.0 - - - - - - -
20/06:30pm 31.9 ESE 5 7 1005.3 - 0.0 - - - - - - -
20/06:00pm 31.9 ESE 5 7 1004.6 - 0.0 - - - - - - -
20/05:30pm 32.5 ESE 8 10 1004.7 - 0.0 - - - - - - -
20/05:00pm 33.9 ESE 7 9 1004.5 - 0.0 - - - - - - -
20/04:30pm 34.7 ENE 8 11 1004.3 - 0.0 - - - - - - -
20/04:00pm 30.8 ENE 13 23 1004.8 - 0.0 - - - - - - -
20/03:31pm 31.9 ESE 25 35 1005.0 - 0.0 - - - - - - -
20/03:30pm 31.7 ESE 26 35 1004.9 - 0.0 - - - - - - -
20/03:22pm 32.4 ENE 18 34 1004.5 - 0.0 - - - - - - -
20/03:17pm 37.1 NNE 9 23 1004.7 - 0.0 - - - - - - -
20/03:00pm 38.3 N 8 13 1003.9 - 0.0 - - - - - - -
20/02:30pm 38.4 NNE 7 11 1004.2 - 0.0 - - - - - - -
20/02:00pm 38.2 N 5 9 1004.6 - 0.0 - - - - - - -
20/01:30pm 37.8 N 5 11 1005.1 - 0.0 - - - - - - -
20/01:00pm 38.3 NE 7 11 1005.6 - 0.0 - - - - - - -
20/12:30pm 37.3 WSW 4 7 1006.1 - 0.0 - - - - - - -
20/12:00pm 36.9 W 6 9 1006.5 - 0.0 - - - - - - -
20/11:30am 35.9 W 6 9 1006.8 - 0.0 - - - - - - -
20/11:00am - WSW 5 7 1007.4 - 0.0 - - - - - - -
20/10:30am - W 5 7 1008.1 - 0.0 - - - - - - -
20/10:00am - SW 3 6 1008.7 - 0.0 - - - - - - -
20/09:30am - NE 6 8 1009.1 - 0.0 - - - - - - -
20/09:00am 32.0 ENE 8 11 1009.6 - 8.0 Recent precip. - - - - - -
20/08:30am 31.8 E 9 12 1009.6 - 8.0 - - - - - - -
20/08:00am 30.6 ENE 7 9 1009.6 - 7.8 - - - - - - -
20/07:30am 29.7 ENE 7 9 1009.8 - 7.8 - - - - - - -
20/07:00am 29.0 E 5 7 1009.9 - 7.8 - - - - - - -
20/06:30am 28.1 E 5 7 1009.8 - 7.8 - - - - - - -
20/06:00am 28.2 E 4 5 1009.3 - 7.8 - - - - - - -
20/05:30am 27.1 ENE 5 6 1009.1 - 7.8 - - - - - - -
20/05:00am 26.4 ESE 4 5 1009.0 - 7.8 - - - - - - -
20/04:30am 26.6 S 3 5 1008.8 - 7.8 - - - - - - -
20/04:00am 26.5 S 3 5 1008.5 - 7.8 - - - - - - -
20/03:30am 27.2 W 4 5 1008.2 - 7.8 - - - - - - -
20/03:00am 27.4 W 4 5 1008.0 - 7.8 - - - - - - -
20/02:30am 27.5 SW 5 7 1007.8 - 7.8 - - - - - - -
20/02:00am 28.0 WNW 6 8 1007.8 - 7.8 - - - - - - -
20/01:30am 28.2 WNW 6 7 1008.0 - 7.8 - - - - - - -
20/01:00am 28.1 WNW 5 6 1008.2 - 7.8 - - - - - - -
20/12:30am 28.4 SW 7 8 1008.6 - 7.8 - - - - - - -
20/12:00am 28.8 SSW 7 8 1008.9 - 7.8 - - - - - - -
 
Date/Time
WST
Temp
°C
Wind Pressure Rain since
9am
mm
Weather Cloud Vis
km
Sea
Height
m
Swell
Dir  Spd
kts
Gust
kts
hPa Trend Height
m
Period
s
Dir
19/11:30pm 29.2 WSW 11 12 1009.2 - 7.8 - - - - - - -
19/11:00pm 29.5 W 9 11 1009.7 - 7.8 - - - - - - -
19/10:30pm 29.6 WSW 8 10 1009.9 - 7.8 - - - - - - -
19/10:00pm 30.0 SW 10 13 1010.2 - 7.8 - - - - - - -
19/09:30pm 29.9 WSW 6 9 1010.5 - 7.8 - - - - - - -
19/09:00pm 30.2 NW 7 8 1009.8 - 7.8 - - - - - - -
19/08:30pm 30.6 NW 10 12 1009.3 - 7.8 - - - - - - -
19/08:00pm 30.6 NW 6 9 1008.9 - 7.8 - - - - - - -
19/07:30pm 29.6 SSW 3 4 1008.4 - 7.8 - - - - - - -
19/07:00pm 29.7 SSW 6 8 1007.9 - 7.8 - - - - - - -
19/06:30pm 30.4 SW 3 5 1007.4 - 7.8 - - - - - - -
19/06:00pm 31.1 NNW 7 11 1006.5 - 7.8 - - - - - - -
19/05:30pm 31.2 ESE 1 4 1006.4 - 7.8 - - - - - - -
19/05:00pm 31.1 NNW 4 7 1006.1 - 7.8 - - - - - - -
19/04:30pm 30.8 N 10 13 1006.1 - 7.8 - - - - - - -
19/04:00pm 30.1 N 8 11 1005.7 - 7.8 - - - - - - -
19/03:30pm 28.0 NNE 8 14 1005.5 - 7.8 - - - - - - -
19/03:00pm 25.2 NNE 16 25 1006.3 - 7.0 Rain - - - - - -
19/02:39pm 27.4 NNE 24 39 1005.6 - 0.4 - - - - - - -
19/02:30pm 27.4 NNE 24 32 1005.5 - 0.2 - - - - - - -
19/02:26pm 29.5 N 22 32 1005.1 - 0.0 - - - - - - -
19/02:05pm 34.9 N 13 26 1005.1 - 0.0 - - - - - - -
19/02:00pm 36.5 NNE 5 19 1005.2 - 0.0 - - - - - - -
19/01:30pm 37.2 NE 6 11 1005.1 - 0.0 - - - - - - -
19/01:00pm 38.1 SE 6 11 1005.5 - 0.0 - - - - - - -
19/12:30pm 37.5 NE 6 10 1006.2 - 0.0 - - - - - - -
19/12:00pm 37.3 N 5 11 1006.8 - 0.0 - - - - - - -
19/11:30am 36.4 SSW 6 8 1007.5 - 0.0 - - - - - - -
19/11:00am 35.3 SSW 6 8 1007.9 - 0.0 - - - - - - -
19/10:30am 34.6 SSE 7 10 1008.5 - 0.0 - - - - - - -
19/10:00am 34.6 SSW 7 13 1009.0 - 0.0 - - - - - - -
19/09:30am 34.6 SSW 7 11 1009.1 - 0.0 - - - - - - -
19/09:00am 32.6 S 5 7 1009.5 - 0.0 - - - - - - -
19/08:30am 31.1 WNW 3 5 1009.6 - 0.0 - - - - - - -
19/08:00am 29.9 E 3 8 1010.0 - 0.0 - - - - - - -
19/07:30am 29.4 SE 15 19 1010.0 - 0.0 - - - - - - -
19/07:28am 29.7 SE 15 19 1010.1 - 0.0 - - - - - - -
19/07:00am 31.5 ESE 4 6 1010.4 - 0.0 - - - - - - -
19/06:30am 31.4 WNW 2 4 1009.9 - 0.0 - - - - - - -
19/06:00am 31.0 NNW 2 4 1009.2 - 0.0 - - - - - - -
19/05:30am 29.7 N 1 3 1009.1 - 0.0 - - - - - - -
19/05:00am 28.3 N 3 4 1008.4 - 0.0 - - - - - - -
19/04:30am 28.4 N 4 5 1007.8 - 0.0 - - - - - - -
19/04:00am 28.6 WNW 4 5 1007.6 - 0.0 - - - - - - -
19/03:30am 29.1 WSW 6 6 1007.3 - 0.0 - - - - - - -
19/03:00am 29.5 WSW 5 6 1007.0 - 0.0 - - - - - - -
19/02:30am 30.1 W 7 9 1007.1 - 0.0 - - - - - - -
19/02:00am 30.3 WNW 6 8 1007.3 - 0.0 - - - - - - -
19/01:30am 30.3 NW 6 8 1007.3 - 0.0 - - - - - - -
19/01:00am 30.2 NNW 6 7 1007.3 - 0.0 - - - - - - -
19/12:30am 30.4 NW 8 11 1007.6 - 0.0 - - - - - - -
19/12:00am 30.8 NW 8 9 1007.8 - 0.0 - - - - - - -
 
Date/Time
WST
Temp
°C
Wind Pressure Rain since
9am
mm
Weather Cloud Vis
km
Sea
Height
m
Swell
Dir  Spd
kts
Gust
kts
hPa Trend Height
m
Period
s
Dir
18/11:30pm 30.9 NNW 7 10 1007.8 - 0.0 - - - - - - -
18/11:00pm 31.2 NNW 7 11 1008.0 - 0.0 - - - - - - -
18/10:30pm 31.3 NW 7 11 1008.2 - 0.0 - - - - - - -
18/10:00pm 31.9 WNW 7 9 1008.2 - 0.0 - - - - - - -
18/09:30pm 31.8 SW 5 6 1007.9 - 0.0 - - - - - - -
18/09:00pm 31.9 NW 3 5 1008.0 - 0.0 - - - - - - -
18/08:30pm 32.1 NNW 11 15 1007.6 - 0.0 - - - - - - -
18/08:00pm 32.2 N 12 16 1007.1 - 0.0 - - - - - - -
18/07:30pm 32.3 N 14 18 1006.5 - 0.0 - - - - - - -
18/07:00pm 32.4 N 14 18 1006.4 - 0.0 - - - - - - -
18/06:30pm 32.5 N 15 19 1005.8 - 0.0 - - - - - - -
18/06:00pm 33.0 N 17 21 1005.4 - 0.0 - - - - - - -
18/05:30pm 33.2 N 17 22 1005.0 - 0.0 - - - - - - -
18/05:00pm 33.8 N 17 22 1004.6 - 0.0 - - - - - - -
18/04:30pm 35.3 N 16 22 1004.5 - 0.0 - - - - - - -
18/04:00pm 36.4 NNW 16 22 1004.0 - 0.0 - - - - - - -
18/03:30pm 37.5 N 13 19 1003.7 - 0.0 - - - - - - -
18/03:00pm 37.5 NNE 11 17 1003.8 - 0.0 - - - - - - -
18/02:30pm 38.5 N 13 18 1003.9 - 0.0 - - - - - - -
18/02:00pm 38.7 N 12 17 1004.2 - 0.0 - - - - - - -
18/01:30pm 38.1 NNW 13 19 1004.6 - 0.0 - - - - - - -
18/01:00pm 37.2 N 11 15 1005.0 - 0.0 - - - - - - -
18/12:30pm 36.0 N 12 17 1005.5 - 0.0 - - - - - - -
18/12:00pm 37.8 NE 8 14 1006.2 - 0.0 - - - - - - -
18/11:30am 36.6 NE 5 10 1006.9 - 0.0 - - - - - - -
18/11:00am 35.7 ENE 5 10 1007.5 - 0.0 - - - - - - -

Other Formats:

Comma delimited format used in spreadsheet applications
http://www.bom.gov.au/fwo/IDW60701/IDW60701.95214.axf

JavaScript Object Notation format (JSON) in row-major order
http://www.bom.gov.au/fwo/IDW60701/IDW60701.95214.json